sensor_id;sensor_type;location;lat;lon;timestamp;P1;durP1;ratioP1;P2;durP2;ratioP2
545;SDS011;259;53.304;9.816;2024-03-08T00:01:09;6.80;;;6.30;;
545;SDS011;259;53.304;9.816;2024-03-08T00:03:35;6.20;;;5.70;;
545;SDS011;259;53.304;9.816;2024-03-08T00:06:01;6.80;;;6.30;;
545;SDS011;259;53.304;9.816;2024-03-08T00:08:27;6.60;;;5.90;;
545;SDS011;259;53.304;9.816;2024-03-08T00:10:53;7.00;;;6.40;;
545;SDS011;259;53.304;9.816;2024-03-08T00:13:18;6.23;;;5.70;;
545;SDS011;259;53.304;9.816;2024-03-08T00:15:44;6.00;;;5.50;;
545;SDS011;259;53.304;9.816;2024-03-08T00:18:10;6.30;;;5.70;;
545;SDS011;259;53.304;9.816;2024-03-08T00:20:36;5.77;;;5.27;;
545;SDS011;259;53.304;9.816;2024-03-08T00:23:02;6.87;;;5.97;;
545;SDS011;259;53.304;9.816;2024-03-08T00:25:28;7.30;;;6.63;;
545;SDS011;259;53.304;9.816;2024-03-08T00:27:53;6.67;;;6.07;;
545;SDS011;259;53.304;9.816;2024-03-08T00:30:22;6.30;;;5.70;;
545;SDS011;259;53.304;9.816;2024-03-08T00:32:48;5.33;;;4.83;;
545;SDS011;259;53.304;9.816;2024-03-08T00:35:14;6.73;;;6.03;;
545;SDS011;259;53.304;9.816;2024-03-08T00:37:40;6.30;;;5.70;;
545;SDS011;259;53.304;9.816;2024-03-08T00:40:07;6.50;;;5.90;;
545;SDS011;259;53.304;9.816;2024-03-08T00:42:34;6.30;;;5.70;;
545;SDS011;259;53.304;9.816;2024-03-08T00:45:00;6.30;;;5.70;;
545;SDS011;259;53.304;9.816;2024-03-08T00:47:26;6.10;;;5.60;;
545;SDS011;259;53.304;9.816;2024-03-08T00:49:52;7.20;;;6.50;;
545;SDS011;259;53.304;9.816;2024-03-08T00:52:18;6.73;;;6.13;;
545;SDS011;259;53.304;9.816;2024-03-08T00:54:44;6.50;;;5.90;;
545;SDS011;259;53.304;9.816;2024-03-08T00:57:10;5.70;;;5.20;;
545;SDS011;259;53.304;9.816;2024-03-08T00:59:37;6.20;;;5.70;;
545;SDS011;259;53.304;9.816;2024-03-08T01:02:03;7.13;;;6.27;;
545;SDS011;259;53.304;9.816;2024-03-08T01:04:29;6.50;;;5.90;;
545;SDS011;259;53.304;9.816;2024-03-08T01:06:57;6.50;;;5.90;;
545;SDS011;259;53.304;9.816;2024-03-08T01:09:24;6.20;;;5.60;;
545;SDS011;259;53.304;9.816;2024-03-08T01:11:51;6.50;;;5.67;;
545;SDS011;259;53.304;9.816;2024-03-08T01:14:19;5.20;;;4.80;;
545;SDS011;259;53.304;9.816;2024-03-08T01:16:47;6.83;;;6.23;;
545;SDS011;259;53.304;9.816;2024-03-08T01:19:14;5.90;;;5.40;;
545;SDS011;259;53.304;9.816;2024-03-08T01:21:40;6.13;;;5.50;;
545;SDS011;259;53.304;9.816;2024-03-08T01:24:06;6.77;;;6.17;;
545;SDS011;259;53.304;9.816;2024-03-08T01:26:32;6.30;;;5.80;;
545;SDS011;259;53.304;9.816;2024-03-08T01:28:59;6.03;;;5.57;;
545;SDS011;259;53.304;9.816;2024-03-08T01:31:27;6.20;;;5.60;;
545;SDS011;259;53.304;9.816;2024-03-08T01:33:54;6.93;;;6.30;;
545;SDS011;259;53.304;9.816;2024-03-08T01:36:21;5.80;;;5.30;;
545;SDS011;259;53.304;9.816;2024-03-08T01:38:47;6.07;;;5.47;;
545;SDS011;259;53.304;9.816;2024-03-08T01:41:12;6.30;;;5.70;;
545;SDS011;259;53.304;9.816;2024-03-08T01:43:39;6.50;;;5.90;;
545;SDS011;259;53.304;9.816;2024-03-08T01:46:04;6.50;;;5.83;;
545;SDS011;259;53.304;9.816;2024-03-08T01:48:33;6.47;;;5.87;;
545;SDS011;259;53.304;9.816;2024-03-08T01:50:59;6.33;;;5.77;;
545;SDS011;259;53.304;9.816;2024-03-08T01:53:25;5.93;;;5.43;;
545;SDS011;259;53.304;9.816;2024-03-08T01:55:53;6.20;;;5.37;;
545;SDS011;259;53.304;9.816;2024-03-08T01:58:22;5.80;;;5.40;;
545;SDS011;259;53.304;9.816;2024-03-08T02:00:48;7.23;;;6.53;;
545;SDS011;259;53.304;9.816;2024-03-08T02:03:17;6.40;;;5.90;;
545;SDS011;259;53.304;9.816;2024-03-08T02:05:43;6.30;;;5.80;;
545;SDS011;259;53.304;9.816;2024-03-08T02:08:09;5.90;;;5.40;;
545;SDS011;259;53.304;9.816;2024-03-08T02:10:41;6.00;;;5.40;;
545;SDS011;259;53.304;9.816;2024-03-08T02:13:09;6.03;;;5.50;;
545;SDS011;259;53.304;9.816;2024-03-08T02:18:21;6.60;;;6.00;;
545;SDS011;259;53.304;9.816;2024-03-08T02:20:51;5.23;;;4.83;;
545;SDS011;259;53.304;9.816;2024-03-08T02:23:21;6.40;;;5.80;;
545;SDS011;259;53.304;9.816;2024-03-08T02:25:47;6.33;;;5.73;;
545;SDS011;259;53.304;9.816;2024-03-08T02:28:14;6.33;;;5.80;;
545;SDS011;259;53.304;9.816;2024-03-08T02:30:40;6.93;;;6.23;;
545;SDS011;259;53.304;9.816;2024-03-08T02:33:06;6.30;;;5.70;;
545;SDS011;259;53.304;9.816;2024-03-08T02:35:32;6.07;;;5.47;;
545;SDS011;259;53.304;9.816;2024-03-08T02:37:59;6.77;;;5.87;;
545;SDS011;259;53.304;9.816;2024-03-08T02:40:25;6.47;;;5.83;;
545;SDS011;259;53.304;9.816;2024-03-08T02:42:51;6.40;;;5.80;;
545;SDS011;259;53.304;9.816;2024-03-08T02:45:16;6.47;;;5.97;;
545;SDS011;259;53.304;9.816;2024-03-08T02:47:42;6.70;;;6.10;;
545;SDS011;259;53.304;9.816;2024-03-08T02:50:08;6.43;;;5.83;;
545;SDS011;259;53.304;9.816;2024-03-08T02:52:34;5.77;;;5.17;;
545;SDS011;259;53.304;9.816;2024-03-08T02:55:00;7.10;;;6.50;;
545;SDS011;259;53.304;9.816;2024-03-08T02:57:33;6.13;;;5.47;;
545;SDS011;259;53.304;9.816;2024-03-08T02:59:58;5.67;;;5.23;;
545;SDS011;259;53.304;9.816;2024-03-08T03:02:27;6.30;;;5.70;;
545;SDS011;259;53.304;9.816;2024-03-08T03:04:52;6.13;;;5.60;;
545;SDS011;259;53.304;9.816;2024-03-08T03:07:20;6.73;;;6.10;;
545;SDS011;259;53.304;9.816;2024-03-08T03:09:46;6.37;;;5.83;;
545;SDS011;259;53.304;9.816;2024-03-08T03:12:12;5.80;;;5.17;;
545;SDS011;259;53.304;9.816;2024-03-08T03:14:39;6.27;;;5.67;;
545;SDS011;259;53.304;9.816;2024-03-08T03:17:04;6.87;;;6.07;;
545;SDS011;259;53.304;9.816;2024-03-08T03:19:30;6.97;;;6.27;;
545;SDS011;259;53.304;9.816;2024-03-08T03:21:56;7.00;;;6.30;;
545;SDS011;259;53.304;9.816;2024-03-08T03:24:22;6.53;;;5.90;;
545;SDS011;259;53.304;9.816;2024-03-08T03:26:48;6.10;;;5.57;;
545;SDS011;259;53.304;9.816;2024-03-08T03:29:14;6.50;;;5.90;;
545;SDS011;259;53.304;9.816;2024-03-08T03:31:41;6.23;;;5.70;;
545;SDS011;259;53.304;9.816;2024-03-08T03:34:11;6.10;;;5.50;;
545;SDS011;259;53.304;9.816;2024-03-08T03:36:37;6.30;;;5.80;;
545;SDS011;259;53.304;9.816;2024-03-08T03:39:07;6.07;;;5.57;;
545;SDS011;259;53.304;9.816;2024-03-08T03:41:41;5.90;;;5.30;;
545;SDS011;259;53.304;9.816;2024-03-08T03:44:09;6.27;;;5.70;;
545;SDS011;259;53.304;9.816;2024-03-08T03:46:35;7.00;;;6.30;;
545;SDS011;259;53.304;9.816;2024-03-08T03:49:00;5.60;;;5.10;;
545;SDS011;259;53.304;9.816;2024-03-08T03:51:26;6.10;;;5.50;;
545;SDS011;259;53.304;9.816;2024-03-08T03:53:52;5.50;;;5.00;;
545;SDS011;259;53.304;9.816;2024-03-08T03:56:18;6.00;;;5.43;;
545;SDS011;259;53.304;9.816;2024-03-08T03:58:44;6.10;;;5.60;;
545;SDS011;259;53.304;9.816;2024-03-08T04:01:09;5.50;;;5.03;;
545;SDS011;259;53.304;9.816;2024-03-08T04:03:35;5.97;;;5.47;;
545;SDS011;259;53.304;9.816;2024-03-08T04:06:02;5.80;;;5.30;;
545;SDS011;259;53.304;9.816;2024-03-08T04:08:30;5.97;;;5.37;;
545;SDS011;259;53.304;9.816;2024-03-08T04:10:59;6.07;;;5.57;;
545;SDS011;259;53.304;9.816;2024-03-08T04:13:25;6.10;;;5.60;;
545;SDS011;259;53.304;9.816;2024-03-08T04:15:51;5.20;;;4.80;;
545;SDS011;259;53.304;9.816;2024-03-08T04:18:17;6.50;;;5.80;;
545;SDS011;259;53.304;9.816;2024-03-08T04:20:44;6.77;;;6.07;;
545;SDS011;259;53.304;9.816;2024-03-08T04:23:10;5.87;;;5.37;;
545;SDS011;259;53.304;9.816;2024-03-08T04:25:36;6.43;;;5.83;;
545;SDS011;259;53.304;9.816;2024-03-08T04:28:01;5.87;;;5.33;;
545;SDS011;259;53.304;9.816;2024-03-08T04:30:27;5.50;;;5.00;;
545;SDS011;259;53.304;9.816;2024-03-08T04:32:53;5.67;;;5.13;;
545;SDS011;259;53.304;9.816;2024-03-08T04:35:19;5.93;;;5.40;;
545;SDS011;259;53.304;9.816;2024-03-08T04:37:45;6.83;;;6.13;;
545;SDS011;259;53.304;9.816;2024-03-08T04:40:11;6.10;;;5.60;;
545;SDS011;259;53.304;9.816;2024-03-08T04:42:37;7.23;;;6.63;;
545;SDS011;259;53.304;9.816;2024-03-08T04:45:04;6.17;;;5.57;;
545;SDS011;259;53.304;9.816;2024-03-08T04:47:32;6.33;;;5.73;;
545;SDS011;259;53.304;9.816;2024-03-08T04:49:58;5.57;;;5.07;;
545;SDS011;259;53.304;9.816;2024-03-08T04:52:24;6.43;;;5.83;;
545;SDS011;259;53.304;9.816;2024-03-08T04:54:51;6.10;;;5.57;;
545;SDS011;259;53.304;9.816;2024-03-08T04:57:17;5.73;;;5.23;;
545;SDS011;259;53.304;9.816;2024-03-08T04:59:43;6.67;;;6.07;;
545;SDS011;259;53.304;9.816;2024-03-08T05:02:09;6.37;;;5.77;;
545;SDS011;259;53.304;9.816;2024-03-08T05:04:34;6.47;;;5.90;;
545;SDS011;259;53.304;9.816;2024-03-08T05:07:00;6.27;;;5.70;;
545;SDS011;259;53.304;9.816;2024-03-08T05:09:27;6.50;;;5.83;;
545;SDS011;259;53.304;9.816;2024-03-08T05:11:56;5.90;;;5.30;;
545;SDS011;259;53.304;9.816;2024-03-08T05:14:24;6.50;;;5.90;;
545;SDS011;259;53.304;9.816;2024-03-08T05:16:50;5.80;;;5.30;;
545;SDS011;259;53.304;9.816;2024-03-08T05:19:16;6.70;;;6.10;;
545;SDS011;259;53.304;9.816;2024-03-08T05:21:46;6.30;;;5.70;;
545;SDS011;259;53.304;9.816;2024-03-08T05:24:13;6.20;;;5.57;;
545;SDS011;259;53.304;9.816;2024-03-08T05:26:42;5.73;;;4.90;;
545;SDS011;259;53.304;9.816;2024-03-08T05:29:08;6.13;;;5.53;;
545;SDS011;259;53.304;9.816;2024-03-08T05:31:45;6.90;;;6.20;;
545;SDS011;259;53.304;9.816;2024-03-08T05:34:14;5.83;;;5.33;;
545;SDS011;259;53.304;9.816;2024-03-08T05:36:40;6.00;;;5.43;;
545;SDS011;259;53.304;9.816;2024-03-08T05:39:09;6.53;;;5.90;;
545;SDS011;259;53.304;9.816;2024-03-08T05:41:36;5.53;;;5.03;;
545;SDS011;259;53.304;9.816;2024-03-08T05:44:06;5.90;;;5.40;;
545;SDS011;259;53.304;9.816;2024-03-08T05:46:32;6.73;;;6.13;;
545;SDS011;259;53.304;9.816;2024-03-08T05:48:59;5.30;;;4.80;;
545;SDS011;259;53.304;9.816;2024-03-08T05:51:25;6.53;;;5.93;;
545;SDS011;259;53.304;9.816;2024-03-08T05:53:52;11.60;;;5.83;;
545;SDS011;259;53.304;9.816;2024-03-08T05:56:20;8.47;;;7.63;;
545;SDS011;259;53.304;9.816;2024-03-08T05:58:48;14.80;;;10.70;;
545;SDS011;259;53.304;9.816;2024-03-08T06:01:15;14.73;;;11.00;;
545;SDS011;259;53.304;9.816;2024-03-08T06:03:41;21.20;;;12.90;;
545;SDS011;259;53.304;9.816;2024-03-08T06:06:12;17.33;;;12.30;;
545;SDS011;259;53.304;9.816;2024-03-08T06:08:38;16.80;;;13.03;;
545;SDS011;259;53.304;9.816;2024-03-08T06:11:03;16.63;;;11.70;;
545;SDS011;259;53.304;9.816;2024-03-08T06:13:30;15.50;;;11.23;;
545;SDS011;259;53.304;9.816;2024-03-08T06:15:57;13.67;;;11.30;;
545;SDS011;259;53.304;9.816;2024-03-08T06:18:23;12.57;;;10.40;;
545;SDS011;259;53.304;9.816;2024-03-08T06:20:48;13.70;;;8.60;;
545;SDS011;259;53.304;9.816;2024-03-08T06:23:14;15.37;;;9.30;;
545;SDS011;259;53.304;9.816;2024-03-08T06:25:43;11.03;;;7.70;;
545;SDS011;259;53.304;9.816;2024-03-08T06:28:09;11.73;;;7.70;;
545;SDS011;259;53.304;9.816;2024-03-08T06:30:35;10.10;;;6.60;;
545;SDS011;259;53.304;9.816;2024-03-08T06:33:01;10.00;;;7.23;;
545;SDS011;259;53.304;9.816;2024-03-08T06:35:27;8.93;;;6.57;;
545;SDS011;259;53.304;9.816;2024-03-08T06:37:53;8.53;;;5.70;;
545;SDS011;259;53.304;9.816;2024-03-08T06:40:18;9.27;;;5.83;;
545;SDS011;259;53.304;9.816;2024-03-08T06:42:44;8.87;;;6.03;;
545;SDS011;259;53.304;9.816;2024-03-08T06:45:10;9.87;;;5.33;;
545;SDS011;259;53.304;9.816;2024-03-08T06:47:37;22.20;;;6.80;;
545;SDS011;259;53.304;9.816;2024-03-08T06:50:03;11.50;;;6.47;;
545;SDS011;259;53.304;9.816;2024-03-08T06:52:29;7.03;;;4.70;;
545;SDS011;259;53.304;9.816;2024-03-08T06:54:55;6.50;;;4.67;;
545;SDS011;259;53.304;9.816;2024-03-08T06:57:22;5.83;;;4.73;;
545;SDS011;259;53.304;9.816;2024-03-08T06:59:48;10.10;;;5.70;;
545;SDS011;259;53.304;9.816;2024-03-08T07:02:14;7.03;;;5.83;;
545;SDS011;259;53.304;9.816;2024-03-08T07:04:40;13.67;;;5.50;;
545;SDS011;259;53.304;9.816;2024-03-08T07:07:05;12.67;;;5.60;;
545;SDS011;259;53.304;9.816;2024-03-08T07:09:35;14.70;;;5.43;;
545;SDS011;259;53.304;9.816;2024-03-08T07:12:01;9.87;;;4.80;;
545;SDS011;259;53.304;9.816;2024-03-08T07:14:27;14.00;;;5.87;;
545;SDS011;259;53.304;9.816;2024-03-08T07:16:52;13.17;;;6.23;;
545;SDS011;259;53.304;9.816;2024-03-08T07:19:18;12.50;;;5.80;;
545;SDS011;259;53.304;9.816;2024-03-08T07:21:44;13.33;;;6.20;;
545;SDS011;259;53.304;9.816;2024-03-08T07:24:10;12.43;;;6.23;;
545;SDS011;259;53.304;9.816;2024-03-08T07:26:42;20.47;;;8.03;;
545;SDS011;259;53.304;9.816;2024-03-08T07:29:15;24.83;;;6.77;;
545;SDS011;259;53.304;9.816;2024-03-08T07:31:41;18.97;;;6.63;;
545;SDS011;259;53.304;9.816;2024-03-08T07:34:06;23.80;;;7.23;;
545;SDS011;259;53.304;9.816;2024-03-08T07:36:32;26.50;;;7.90;;
545;SDS011;259;53.304;9.816;2024-03-08T07:39:00;42.70;;;15.80;;
545;SDS011;259;53.304;9.816;2024-03-08T07:41:26;23.00;;;9.60;;
545;SDS011;259;53.304;9.816;2024-03-08T07:43:51;18.77;;;9.90;;
545;SDS011;259;53.304;9.816;2024-03-08T07:46:17;23.83;;;9.10;;
545;SDS011;259;53.304;9.816;2024-03-08T07:48:43;25.67;;;8.70;;
545;SDS011;259;53.304;9.816;2024-03-08T07:51:09;32.87;;;9.10;;
545;SDS011;259;53.304;9.816;2024-03-08T07:53:37;25.37;;;8.73;;
545;SDS011;259;53.304;9.816;2024-03-08T07:56:03;42.40;;;9.20;;
545;SDS011;259;53.304;9.816;2024-03-08T07:58:34;18.23;;;7.67;;
545;SDS011;259;53.304;9.816;2024-03-08T08:01:00;24.80;;;7.80;;
545;SDS011;259;53.304;9.816;2024-03-08T08:03:25;24.03;;;7.47;;
545;SDS011;259;53.304;9.816;2024-03-08T08:05:52;27.13;;;8.47;;
545;SDS011;259;53.304;9.816;2024-03-08T08:08:18;25.73;;;7.40;;
545;SDS011;259;53.304;9.816;2024-03-08T08:10:44;13.67;;;6.47;;
545;SDS011;259;53.304;9.816;2024-03-08T08:13:09;8.93;;;5.73;;
545;SDS011;259;53.304;9.816;2024-03-08T08:15:36;12.00;;;6.20;;
545;SDS011;259;53.304;9.816;2024-03-08T08:18:01;16.60;;;7.10;;
545;SDS011;259;53.304;9.816;2024-03-08T08:20:30;14.80;;;6.17;;
545;SDS011;259;53.304;9.816;2024-03-08T08:22:56;12.60;;;5.83;;
545;SDS011;259;53.304;9.816;2024-03-08T08:25:23;12.73;;;5.03;;
545;SDS011;259;53.304;9.816;2024-03-08T08:27:49;11.03;;;5.67;;
545;SDS011;259;53.304;9.816;2024-03-08T08:30:15;13.07;;;5.43;;
545;SDS011;259;53.304;9.816;2024-03-08T08:32:41;9.20;;;5.67;;
545;SDS011;259;53.304;9.816;2024-03-08T08:35:09;10.30;;;5.60;;
545;SDS011;259;53.304;9.816;2024-03-08T08:37:38;18.97;;;6.83;;
545;SDS011;259;53.304;9.816;2024-03-08T08:40:04;20.30;;;7.87;;
545;SDS011;259;53.304;9.816;2024-03-08T08:42:34;13.27;;;6.40;;
545;SDS011;259;53.304;9.816;2024-03-08T08:45:02;18.93;;;6.07;;
545;SDS011;259;53.304;9.816;2024-03-08T08:47:33;12.97;;;6.50;;
545;SDS011;259;53.304;9.816;2024-03-08T08:49:59;9.87;;;5.83;;
545;SDS011;259;53.304;9.816;2024-03-08T08:52:25;9.70;;;5.60;;
545;SDS011;259;53.304;9.816;2024-03-08T08:54:51;13.13;;;6.77;;
545;SDS011;259;53.304;9.816;2024-03-08T08:57:17;11.53;;;6.00;;
545;SDS011;259;53.304;9.816;2024-03-08T08:59:42;16.07;;;6.20;;
545;SDS011;259;53.304;9.816;2024-03-08T09:02:08;9.67;;;5.60;;
545;SDS011;259;53.304;9.816;2024-03-08T09:04:34;9.43;;;6.30;;
545;SDS011;259;53.304;9.816;2024-03-08T09:07:00;13.43;;;5.63;;
545;SDS011;259;53.304;9.816;2024-03-08T09:09:26;10.33;;;5.47;;
545;SDS011;259;53.304;9.816;2024-03-08T09:11:52;12.43;;;6.20;;
545;SDS011;259;53.304;9.816;2024-03-08T09:14:19;12.47;;;5.80;;
545;SDS011;259;53.304;9.816;2024-03-08T09:16:45;13.37;;;6.97;;
545;SDS011;259;53.304;9.816;2024-03-08T09:19:12;17.10;;;6.53;;
545;SDS011;259;53.304;9.816;2024-03-08T09:21:38;15.10;;;6.57;;
545;SDS011;259;53.304;9.816;2024-03-08T09:24:05;17.93;;;6.80;;
545;SDS011;259;53.304;9.816;2024-03-08T09:26:31;21.63;;;6.63;;
545;SDS011;259;53.304;9.816;2024-03-08T09:28:58;13.90;;;6.10;;
545;SDS011;259;53.304;9.816;2024-03-08T09:31:24;10.60;;;6.40;;
545;SDS011;259;53.304;9.816;2024-03-08T09:33:50;14.47;;;6.17;;
545;SDS011;259;53.304;9.816;2024-03-08T09:36:16;12.77;;;6.40;;
545;SDS011;259;53.304;9.816;2024-03-08T09:38:42;10.53;;;5.70;;
545;SDS011;259;53.304;9.816;2024-03-08T09:41:09;12.20;;;6.30;;
545;SDS011;259;53.304;9.816;2024-03-08T09:43:37;13.27;;;6.57;;
545;SDS011;259;53.304;9.816;2024-03-08T09:46:03;13.20;;;7.40;;
545;SDS011;259;53.304;9.816;2024-03-08T09:48:33;12.67;;;5.90;;
545;SDS011;259;53.304;9.816;2024-03-08T09:50:59;8.40;;;5.63;;
545;SDS011;259;53.304;9.816;2024-03-08T09:53:26;14.87;;;6.53;;
545;SDS011;259;53.304;9.816;2024-03-08T09:55:51;14.83;;;6.00;;
545;SDS011;259;53.304;9.816;2024-03-08T09:58:17;11.73;;;5.97;;
545;SDS011;259;53.304;9.816;2024-03-08T10:00:57;15.80;;;8.03;;
545;SDS011;259;53.304;9.816;2024-03-08T10:03:26;15.07;;;6.40;;
545;SDS011;259;53.304;9.816;2024-03-08T10:05:52;14.30;;;5.80;;
545;SDS011;259;53.304;9.816;2024-03-08T10:08:25;19.00;;;9.63;;
545;SDS011;259;53.304;9.816;2024-03-08T10:10:52;11.63;;;7.60;;
545;SDS011;259;53.304;9.816;2024-03-08T10:13:18;15.43;;;8.07;;
545;SDS011;259;53.304;9.816;2024-03-08T10:15:44;16.53;;;8.17;;
545;SDS011;259;53.304;9.816;2024-03-08T10:18:10;20.20;;;8.40;;
545;SDS011;259;53.304;9.816;2024-03-08T10:20:36;23.63;;;19.10;;
545;SDS011;259;53.304;9.816;2024-03-08T10:23:02;25.93;;;16.10;;
545;SDS011;259;53.304;9.816;2024-03-08T10:25:30;20.97;;;15.73;;
545;SDS011;259;53.304;9.816;2024-03-08T10:27:56;16.97;;;14.50;;
545;SDS011;259;53.304;9.816;2024-03-08T10:30:22;16.43;;;14.00;;
545;SDS011;259;53.304;9.816;2024-03-08T10:32:48;17.00;;;13.30;;
545;SDS011;259;53.304;9.816;2024-03-08T10:35:15;12.53;;;11.20;;
545;SDS011;259;53.304;9.816;2024-03-08T10:37:45;12.60;;;11.30;;
545;SDS011;259;53.304;9.816;2024-03-08T10:40:15;17.13;;;12.20;;
545;SDS011;259;53.304;9.816;2024-03-08T10:45:31;10.00;;;9.10;;
545;SDS011;259;53.304;9.816;2024-03-08T10:50:41;10.97;;;8.50;;
545;SDS011;259;53.304;9.816;2024-03-08T10:53:10;9.27;;;8.37;;
545;SDS011;259;53.304;9.816;2024-03-08T10:55:36;11.00;;;7.47;;
545;SDS011;259;53.304;9.816;2024-03-08T10:58:03;14.30;;;8.93;;
545;SDS011;259;53.304;9.816;2024-03-08T11:00:29;8.67;;;7.80;;
545;SDS011;259;53.304;9.816;2024-03-08T11:02:56;7.80;;;7.10;;
545;SDS011;259;53.304;9.816;2024-03-08T11:08:03;12.43;;;8.63;;
545;SDS011;259;53.304;9.816;2024-03-08T11:10:50;10.47;;;7.80;;
545;SDS011;259;53.304;9.816;2024-03-08T11:13:37;7.93;;;7.10;;
545;SDS011;259;53.304;9.816;2024-03-08T11:18:50;9.87;;;6.83;;
545;SDS011;259;53.304;9.816;2024-03-08T11:21:19;11.23;;;9.00;;
545;SDS011;259;53.304;9.816;2024-03-08T11:24:01;13.20;;;11.93;;
545;SDS011;259;53.304;9.816;2024-03-08T11:26:32;12.17;;;11.20;;
545;SDS011;259;53.304;9.816;2024-03-08T11:32:18;10.63;;;9.27;;
545;SDS011;259;53.304;9.816;2024-03-08T11:34:47;16.50;;;12.60;;
545;SDS011;259;53.304;9.816;2024-03-08T11:37:16;12.00;;;11.00;;
545;SDS011;259;53.304;9.816;2024-03-08T11:39:50;11.07;;;10.17;;
545;SDS011;259;53.304;9.816;2024-03-08T11:42:17;11.03;;;10.10;;
545;SDS011;259;53.304;9.816;2024-03-08T11:44:47;11.67;;;10.57;;
545;SDS011;259;53.304;9.816;2024-03-08T11:47:13;10.00;;;9.23;;
545;SDS011;259;53.304;9.816;2024-03-08T11:49:40;10.57;;;9.67;;
545;SDS011;259;53.304;9.816;2024-03-08T11:52:16;8.97;;;8.27;;
545;SDS011;259;53.304;9.816;2024-03-08T11:54:48;8.70;;;8.00;;
545;SDS011;259;53.304;9.816;2024-03-08T11:57:24;8.40;;;7.70;;
545;SDS011;259;53.304;9.816;2024-03-08T11:59:53;8.20;;;7.60;;
545;SDS011;259;53.304;9.816;2024-03-08T12:02:21;8.30;;;7.70;;
545;SDS011;259;53.304;9.816;2024-03-08T12:04:48;8.10;;;7.50;;
545;SDS011;259;53.304;9.816;2024-03-08T12:07:22;7.43;;;6.93;;
545;SDS011;259;53.304;9.816;2024-03-08T12:12:49;7.17;;;6.57;;
545;SDS011;259;53.304;9.816;2024-03-08T12:15:20;7.43;;;6.90;;
545;SDS011;259;53.304;9.816;2024-03-08T12:17:48;6.83;;;6.30;;
545;SDS011;259;53.304;9.816;2024-03-08T12:20:25;7.17;;;6.17;;
545;SDS011;259;53.304;9.816;2024-03-08T12:22:55;6.73;;;6.23;;
545;SDS011;259;53.304;9.816;2024-03-08T12:25:22;7.03;;;6.43;;
545;SDS011;259;53.304;9.816;2024-03-08T12:27:51;7.20;;;6.70;;
545;SDS011;259;53.304;9.816;2024-03-08T12:30:22;6.20;;;5.70;;
545;SDS011;259;53.304;9.816;2024-03-08T12:32:55;6.73;;;6.23;;
545;SDS011;259;53.304;9.816;2024-03-08T12:35:24;6.10;;;5.67;;
545;SDS011;259;53.304;9.816;2024-03-08T12:37:52;5.70;;;5.30;;
545;SDS011;259;53.304;9.816;2024-03-08T12:40:26;6.33;;;5.87;;
545;SDS011;259;53.304;9.816;2024-03-08T12:42:55;6.83;;;5.97;;
545;SDS011;259;53.304;9.816;2024-03-08T12:45:21;6.13;;;5.73;;
545;SDS011;259;53.304;9.816;2024-03-08T12:47:49;5.97;;;5.57;;
545;SDS011;259;53.304;9.816;2024-03-08T12:50:19;6.23;;;5.83;;
545;SDS011;259;53.304;9.816;2024-03-08T12:52:46;6.27;;;5.77;;
545;SDS011;259;53.304;9.816;2024-03-08T12:55:12;5.60;;;5.20;;
545;SDS011;259;53.304;9.816;2024-03-08T12:57:39;5.53;;;5.03;;
545;SDS011;259;53.304;9.816;2024-03-08T13:00:05;6.30;;;5.80;;
545;SDS011;259;53.304;9.816;2024-03-08T13:02:34;6.50;;;6.00;;
545;SDS011;259;53.304;9.816;2024-03-08T13:05:00;7.10;;;6.50;;
545;SDS011;259;53.304;9.816;2024-03-08T13:07:26;8.83;;;7.57;;
545;SDS011;259;53.304;9.816;2024-03-08T13:09:54;7.53;;;6.93;;
545;SDS011;259;53.304;9.816;2024-03-08T13:12:20;7.90;;;6.70;;
545;SDS011;259;53.304;9.816;2024-03-08T13:14:47;7.73;;;6.67;;
545;SDS011;259;53.304;9.816;2024-03-08T13:17:16;9.43;;;7.77;;
545;SDS011;259;53.304;9.816;2024-03-08T13:19:43;7.90;;;7.10;;
545;SDS011;259;53.304;9.816;2024-03-08T13:22:09;7.50;;;5.77;;
545;SDS011;259;53.304;9.816;2024-03-08T13:24:41;6.87;;;6.27;;
545;SDS011;259;53.304;9.816;2024-03-08T13:27:08;9.43;;;6.23;;
545;SDS011;259;53.304;9.816;2024-03-08T13:29:47;6.50;;;5.90;;
545;SDS011;259;53.304;9.816;2024-03-08T13:32:14;6.83;;;5.93;;
545;SDS011;259;53.304;9.816;2024-03-08T13:34:41;6.90;;;6.30;;
545;SDS011;259;53.304;9.816;2024-03-08T13:37:08;6.13;;;5.60;;
545;SDS011;259;53.304;9.816;2024-03-08T13:39:35;6.50;;;5.90;;
545;SDS011;259;53.304;9.816;2024-03-08T13:42:15;6.80;;;5.57;;
545;SDS011;259;53.304;9.816;2024-03-08T13:44:45;6.37;;;5.77;;
545;SDS011;259;53.304;9.816;2024-03-08T13:47:12;5.87;;;5.37;;
545;SDS011;259;53.304;9.816;2024-03-08T13:49:39;5.93;;;5.43;;
545;SDS011;259;53.304;9.816;2024-03-08T13:52:05;5.60;;;5.20;;
545;SDS011;259;53.304;9.816;2024-03-08T13:54:33;6.27;;;5.63;;
545;SDS011;259;53.304;9.816;2024-03-08T13:57:00;5.77;;;5.27;;
545;SDS011;259;53.304;9.816;2024-03-08T13:59:28;6.03;;;5.50;;
545;SDS011;259;53.304;9.816;2024-03-08T14:01:56;6.10;;;5.70;;
545;SDS011;259;53.304;9.816;2024-03-08T14:04:22;6.53;;;5.93;;
545;SDS011;259;53.304;9.816;2024-03-08T14:06:49;6.00;;;5.10;;
545;SDS011;259;53.304;9.816;2024-03-08T14:09:14;5.93;;;5.53;;
545;SDS011;259;53.304;9.816;2024-03-08T14:11:44;5.30;;;4.90;;
545;SDS011;259;53.304;9.816;2024-03-08T14:14:10;5.10;;;4.70;;
545;SDS011;259;53.304;9.816;2024-03-08T14:16:39;6.17;;;5.77;;
545;SDS011;259;53.304;9.816;2024-03-08T14:19:05;6.00;;;5.50;;
545;SDS011;259;53.304;9.816;2024-03-08T14:21:31;6.70;;;6.20;;
545;SDS011;259;53.304;9.816;2024-03-08T14:23:58;6.60;;;6.10;;
545;SDS011;259;53.304;9.816;2024-03-08T14:26:23;6.00;;;5.57;;
545;SDS011;259;53.304;9.816;2024-03-08T14:28:49;5.87;;;5.47;;
545;SDS011;259;53.304;9.816;2024-03-08T14:31:19;6.17;;;5.57;;
545;SDS011;259;53.304;9.816;2024-03-08T14:33:48;5.93;;;5.47;;
545;SDS011;259;53.304;9.816;2024-03-08T14:36:14;6.00;;;5.50;;
545;SDS011;259;53.304;9.816;2024-03-08T14:38:44;5.77;;;5.37;;
545;SDS011;259;53.304;9.816;2024-03-08T14:41:12;5.70;;;5.20;;
545;SDS011;259;53.304;9.816;2024-03-08T14:43:42;6.10;;;4.97;;
545;SDS011;259;53.304;9.816;2024-03-08T14:46:11;5.97;;;5.50;;
545;SDS011;259;53.304;9.816;2024-03-08T14:48:45;5.73;;;5.30;;
545;SDS011;259;53.304;9.816;2024-03-08T14:51:21;5.40;;;5.00;;
545;SDS011;259;53.304;9.816;2024-03-08T14:53:51;5.43;;;5.03;;
545;SDS011;259;53.304;9.816;2024-03-08T14:56:18;5.53;;;5.03;;
545;SDS011;259;53.304;9.816;2024-03-08T14:58:44;4.77;;;4.40;;
545;SDS011;259;53.304;9.816;2024-03-08T15:01:14;6.37;;;5.90;;
545;SDS011;259;53.304;9.816;2024-03-08T15:03:43;5.30;;;4.90;;
545;SDS011;259;53.304;9.816;2024-03-08T15:06:09;6.00;;;5.60;;
545;SDS011;259;53.304;9.816;2024-03-08T15:08:36;8.60;;;7.10;;
545;SDS011;259;53.304;9.816;2024-03-08T15:11:02;9.43;;;7.80;;
545;SDS011;259;53.304;9.816;2024-03-08T15:13:30;8.80;;;8.00;;
545;SDS011;259;53.304;9.816;2024-03-08T15:16:09;10.00;;;7.87;;
545;SDS011;259;53.304;9.816;2024-03-08T15:18:42;10.60;;;9.70;;
545;SDS011;259;53.304;9.816;2024-03-08T15:21:11;10.27;;;9.37;;
545;SDS011;259;53.304;9.816;2024-03-08T15:23:43;10.93;;;10.00;;
545;SDS011;259;53.304;9.816;2024-03-08T15:26:14;9.87;;;8.97;;
545;SDS011;259;53.304;9.816;2024-03-08T15:28:41;11.23;;;8.97;;
545;SDS011;259;53.304;9.816;2024-03-08T15:31:09;12.53;;;10.53;;
545;SDS011;259;53.304;9.816;2024-03-08T15:33:36;10.77;;;9.60;;
545;SDS011;259;53.304;9.816;2024-03-08T15:36:13;22.13;;;11.83;;
545;SDS011;259;53.304;9.816;2024-03-08T15:38:41;16.37;;;10.57;;
545;SDS011;259;53.304;9.816;2024-03-08T15:41:11;10.20;;;9.23;;
545;SDS011;259;53.304;9.816;2024-03-08T15:43:38;14.00;;;10.03;;
545;SDS011;259;53.304;9.816;2024-03-08T15:46:05;10.67;;;9.67;;
545;SDS011;259;53.304;9.816;2024-03-08T15:48:32;13.63;;;10.90;;
545;SDS011;259;53.304;9.816;2024-03-08T15:51:00;15.40;;;10.10;;
545;SDS011;259;53.304;9.816;2024-03-08T15:53:34;23.73;;;10.80;;
545;SDS011;259;53.304;9.816;2024-03-08T15:56:02;13.20;;;10.27;;
545;SDS011;259;53.304;9.816;2024-03-08T15:58:30;14.80;;;10.80;;
545;SDS011;259;53.304;9.816;2024-03-08T16:00:57;12.60;;;9.77;;